sensor_id;sensor_type;location;lat;lon;timestamp;pressure;altitude;pressure_sealevel;temperature;humidity
75747;BME280;70632;52.232;21.038;2024-01-30T01:14:00;101998.19;;;0.30;100.00
75747;BME280;70632;52.232;21.038;2024-01-30T01:16:28;101996.41;;;0.30;100.00
75747;BME280;70632;52.232;21.038;2024-01-30T01:18:53;101996.41;;;0.30;100.00
75747;BME280;70632;52.232;21.038;2024-01-30T01:21:19;101991.19;;;0.19;100.00
75747;BME280;70632;52.232;21.038;2024-01-30T01:23:45;102000.13;;;0.17;100.00
75747;BME280;70632;52.232;21.038;2024-01-30T01:26:11;102000.06;;;0.25;100.00
75747;BME280;70632;52.232;21.038;2024-01-30T01:28:36;101994.72;;;0.25;100.00
75747;BME280;70632;52.232;21.038;2024-01-30T01:31:02;101999.19;;;0.21;100.00
75747;BME280;70632;52.232;21.038;2024-01-30T01:33:34;101998.19;;;0.31;100.00
75747;BME280;70632;52.232;21.038;2024-01-30T01:36:01;101991.06;;;0.33;100.00
75747;BME280;70632;52.232;21.038;2024-01-30T01:38:28;101993.66;;;0.38;100.00
75747;BME280;70632;52.232;21.038;2024-01-30T01:40:54;101985.66;;;0.38;100.00
75747;BME280;70632;52.232;21.038;2024-01-30T01:43:20;101986.56;;;0.35;100.00
75747;BME280;70632;52.232;21.038;2024-01-30T01:45:46;101989.25;;;0.34;100.00
75747;BME280;70632;52.232;21.038;2024-01-30T01:48:11;101983.00;;;0.36;100.00
75747;BME280;70632;52.232;21.038;2024-01-30T01:50:38;101984.72;;;0.42;100.00
75747;BME280;70632;52.232;21.038;2024-01-30T01:53:07;101974.09;;;0.39;100.00
75747;BME280;70632;52.232;21.038;2024-01-30T01:55:34;101971.53;;;0.30;100.00
75747;BME280;70632;52.232;21.038;2024-01-30T01:58:01;101967.13;;;0.24;100.00
75747;BME280;70632;52.232;21.038;2024-01-30T02:00:27;101969.06;;;0.14;100.00
75747;BME280;70632;52.232;21.038;2024-01-30T02:02:54;101958.47;;;0.04;100.00
75747;BME280;70632;52.232;21.038;2024-01-30T02:05:21;101959.38;;;0.04;100.00
75747;BME280;70632;52.232;21.038;2024-01-30T02:07:46;101965.53;;;0.09;100.00
75747;BME280;70632;52.232;21.038;2024-01-30T02:10:13;101963.91;;;-0.04;100.00
75747;BME280;70632;52.232;21.038;2024-01-30T02:12:39;101956.75;;;0.01;100.00
75747;BME280;70632;52.232;21.038;2024-01-30T02:15:05;101951.34;;;0.06;100.00
75747;BME280;70632;52.232;21.038;2024-01-30T02:17:32;101956.72;;;0.04;100.00
75747;BME280;70632;52.232;21.038;2024-01-30T02:19:59;101958.66;;;-0.12;100.00
75747;BME280;70632;52.232;21.038;2024-01-30T02:22:24;101956.91;;;-0.14;100.00
75747;BME280;70632;52.232;21.038;2024-01-30T02:24:51;101963.25;;;-0.28;100.00
75747;BME280;70632;52.232;21.038;2024-01-30T02:27:16;101954.31;;;-0.21;100.00
75747;BME280;70632;52.232;21.038;2024-01-30T02:29:42;101947.16;;;-0.17;100.00
75747;BME280;70632;52.232;21.038;2024-01-30T02:32:08;101959.66;;;-0.24;100.00
75747;BME280;70632;52.232;21.038;2024-01-30T02:34:34;101964.06;;;-0.18;100.00
75747;BME280;70632;52.232;21.038;2024-01-30T02:36:59;101960.59;;;-0.26;100.00
75747;BME280;70632;52.232;21.038;2024-01-30T02:39:25;101957.09;;;-0.33;100.00
75747;BME280;70632;52.232;21.038;2024-01-30T02:41:51;101964.13;;;-0.27;100.00
75747;BME280;70632;52.232;21.038;2024-01-30T02:44:17;101963.31;;;-0.31;100.00
75747;BME280;70632;52.232;21.038;2024-01-30T02:46:43;101959.72;;;-0.27;100.00
75747;BME280;70632;52.232;21.038;2024-01-30T02:49:08;101956.19;;;-0.29;100.00
75747;BME280;70632;52.232;21.038;2024-01-30T02:51:34;101960.63;;;-0.31;100.00
75747;BME280;70632;52.232;21.038;2024-01-30T02:54:00;101959.66;;;-0.24;100.00
75747;BME280;70632;52.232;21.038;2024-01-30T02:56:26;101949.88;;;-0.22;100.00
75747;BME280;70632;52.232;21.038;2024-01-30T02:58:52;101946.41;;;-0.30;100.00
75747;BME280;70632;52.232;21.038;2024-01-30T03:01:17;101954.41;;;-0.31;100.00
75747;BME280;70632;52.232;21.038;2024-01-30T03:03:43;101957.13;;;-0.37;100.00
75747;BME280;70632;52.232;21.038;2024-01-30T03:06:09;101963.31;;;-0.34;100.00
75747;BME280;70632;52.232;21.038;2024-01-30T03:08:35;101958.84;;;-0.32;100.00
75747;BME280;70632;52.232;21.038;2024-01-30T03:11:00;101951.78;;;-0.34;100.00
75747;BME280;70632;52.232;21.038;2024-01-30T03:13:27;101949.06;;;-0.30;100.00
75747;BME280;70632;52.232;21.038;2024-01-30T03:15:52;101944.78;;;-0.45;100.00
75747;BME280;70632;52.232;21.038;2024-01-30T03:18:19;101960.72;;;-0.42;100.00
75747;BME280;70632;52.232;21.038;2024-01-30T03:20:44;101950.97;;;-0.43;100.00
75747;BME280;70632;52.232;21.038;2024-01-30T03:23:10;101943.84;;;-0.39;100.00
75747;BME280;70632;52.232;21.038;2024-01-30T03:25:36;101956.19;;;-0.30;100.00
75747;BME280;70632;52.232;21.038;2024-01-30T03:28:02;101949.94;;;-0.28;100.00
75747;BME280;70632;52.232;21.038;2024-01-30T03:30:27;101952.59;;;-0.28;100.00
75747;BME280;70632;52.232;21.038;2024-01-30T03:32:53;101950.00;;;-0.35;100.00
75747;BME280;70632;52.232;21.038;2024-01-30T03:35:19;101947.28;;;-0.29;100.00
75747;BME280;70632;52.232;21.038;2024-01-30T03:37:45;101949.94;;;-0.28;100.00
75747;BME280;70632;52.232;21.038;2024-01-30T03:40:11;101950.81;;;-0.26;100.00
75747;BME280;70632;52.232;21.038;2024-01-30T03:42:37;101942.75;;;-0.19;100.00
75747;BME280;70632;52.232;21.038;2024-01-30T03:45:03;101943.59;;;-0.17;100.00
75747;BME280;70632;52.232;21.038;2024-01-30T03:47:29;101947.19;;;-0.22;100.00
75747;BME280;70632;52.232;21.038;2024-01-30T03:49:54;101942.97;;;-0.43;100.00
75747;BME280;70632;52.232;21.038;2024-01-30T03:52:20;101946.56;;;-0.48;100.00
75747;BME280;70632;52.232;21.038;2024-01-30T03:54:46;101949.13;;;-0.33;100.00
75747;BME280;70632;52.232;21.038;2024-01-30T03:57:12;101937.59;;;-0.39;100.00
75747;BME280;70632;52.232;21.038;2024-01-30T03:59:37;101949.16;;;-0.39;100.00
75747;BME280;70632;52.232;21.038;2024-01-30T04:02:03;101940.31;;;-0.41;100.00
75747;BME280;70632;52.232;21.038;2024-01-30T04:04:29;101934.06;;;-0.40;100.00
75747;BME280;70632;52.232;21.038;2024-01-30T04:06:55;101932.38;;;-0.50;100.00
75747;BME280;70632;52.232;21.038;2024-01-30T04:09:21;101941.25;;;-0.48;100.00
75747;BME280;70632;52.232;21.038;2024-01-30T04:11:47;101942.09;;;-0.43;100.00
75747;BME280;70632;52.232;21.038;2024-01-30T04:14:12;101938.56;;;-0.47;100.00
75747;BME280;70632;52.232;21.038;2024-01-30T04:16:38;101935.00;;;-0.46;100.00
75747;BME280;70632;52.232;21.038;2024-01-30T04:19:04;101938.63;;;-0.51;100.00
75747;BME280;70632;52.232;21.038;2024-01-30T04:21:30;101946.56;;;-0.45;100.00
75747;BME280;70632;52.232;21.038;2024-01-30T04:23:55;101943.84;;;-0.41;100.00
75747;BME280;70632;52.232;21.038;2024-01-30T04:26:21;101936.78;;;-0.45;100.00
75747;BME280;70632;52.232;21.038;2024-01-30T04:28:47;101942.13;;;-0.48;100.00
75747;BME280;70632;52.232;21.038;2024-01-30T04:31:13;101943.91;;;-0.45;100.00
75747;BME280;70632;52.232;21.038;2024-01-30T04:33:38;101945.69;;;-0.47;100.00
75747;BME280;70632;52.232;21.038;2024-01-30T04:36:07;101940.25;;;-0.38;100.00
75747;BME280;70632;52.232;21.038;2024-01-30T04:38:34;101935.75;;;-0.31;100.00
75747;BME280;70632;52.232;21.038;2024-01-30T04:41:00;101935.81;;;-0.37;100.00
75747;BME280;70632;52.232;21.038;2024-01-30T04:43:25;101946.59;;;-0.50;100.00
75747;BME280;70632;52.232;21.038;2024-01-30T04:45:52;101942.13;;;-0.48;100.00
75747;BME280;70632;52.232;21.038;2024-01-30T04:48:17;101939.47;;;-0.48;100.00
75747;BME280;70632;52.232;21.038;2024-01-30T04:50:43;101943.91;;;-0.50;100.00
75747;BME280;70632;52.232;21.038;2024-01-30T04:53:09;101943.91;;;-0.50;100.00
75747;BME280;70632;52.232;21.038;2024-01-30T04:55:35;101937.72;;;-0.50;100.00
75747;BME280;70632;52.232;21.038;2024-01-30T04:58:01;101943.06;;;-0.52;100.00
75747;BME280;70632;52.232;21.038;2024-01-30T05:00:27;101940.38;;;-0.50;100.00
75747;BME280;70632;52.232;21.038;2024-01-30T05:02:55;101926.19;;;-0.54;100.00
75747;BME280;70632;52.232;21.038;2024-01-30T05:05:21;101929.78;;;-0.53;100.00
75747;BME280;70632;52.232;21.038;2024-01-30T05:07:47;101940.44;;;-0.58;100.00
75747;BME280;70632;52.232;21.038;2024-01-30T05:10:13;101925.44;;;-0.65;100.00
75747;BME280;70632;52.232;21.038;2024-01-30T05:12:39;101933.47;;;-0.70;100.00
75747;BME280;70632;52.232;21.038;2024-01-30T05:15:05;101930.75;;;-0.68;100.00
75747;BME280;70632;52.232;21.038;2024-01-30T05:17:31;101935.22;;;-0.67;100.00
75747;BME280;70632;52.232;21.038;2024-01-30T05:19:57;101937.94;;;-0.73;100.00
75747;BME280;70632;52.232;21.038;2024-01-30T05:22:23;101934.44;;;-0.83;100.00
75747;BME280;70632;52.232;21.038;2024-01-30T05:24:49;101929.00;;;-0.68;100.00
75747;BME280;70632;52.232;21.038;2024-01-30T05:27:15;101936.19;;;-0.76;100.00
75747;BME280;70632;52.232;21.038;2024-01-30T05:29:41;101927.28;;;-0.72;100.00
75747;BME280;70632;52.232;21.038;2024-01-30T05:32:06;101925.38;;;-0.62;100.00
75747;BME280;70632;52.232;21.038;2024-01-30T05:34:32;101932.59;;;-0.76;100.00
75747;BME280;70632;52.232;21.038;2024-01-30T05:36:58;101931.00;;;-0.99;100.00
75747;BME280;70632;52.232;21.038;2024-01-30T05:39:24;101940.75;;;-0.93;100.00
75747;BME280;70632;52.232;21.038;2024-01-30T05:41:50;101930.13;;;-0.96;100.00
75747;BME280;70632;52.232;21.038;2024-01-30T05:44:16;101930.06;;;-0.89;100.00
75747;BME280;70632;52.232;21.038;2024-01-30T05:46:42;101935.31;;;-0.78;100.00
75747;BME280;70632;52.232;21.038;2024-01-30T05:49:08;101952.16;;;-0.76;100.00
75747;BME280;70632;52.232;21.038;2024-01-30T05:51:33;101940.63;;;-0.78;100.00
75747;BME280;70632;52.232;21.038;2024-01-30T05:53:59;101946.78;;;-0.73;100.00
75747;BME280;70632;52.232;21.038;2024-01-30T05:56:25;101938.84;;;-0.79;100.00
75747;BME280;70632;52.232;21.038;2024-01-30T05:58:51;101935.31;;;-0.81;100.00
75747;BME280;70632;52.232;21.038;2024-01-30T06:01:16;101938.91;;;-0.85;100.00
75747;BME280;70632;52.232;21.038;2024-01-30T06:03:43;101933.47;;;-0.74;100.00
75747;BME280;70632;52.232;21.038;2024-01-30T06:06:09;101937.16;;;-0.86;100.00
75747;BME280;70632;52.232;21.038;2024-01-30T06:08:35;101940.75;;;-0.90;100.00
75747;BME280;70632;52.232;21.038;2024-01-30T06:11:00;101935.38;;;-0.87;100.00
75747;BME280;70632;52.232;21.038;2024-01-30T06:13:27;101941.66;;;-0.94;100.00
75747;BME280;70632;52.232;21.038;2024-01-30T06:15:52;101915.81;;;-0.80;100.00
75747;BME280;70632;52.232;21.038;2024-01-30T06:18:18;101930.97;;;-0.88;100.00
75747;BME280;70632;52.232;21.038;2024-01-30T06:20:44;101926.50;;;-0.91;100.00
75747;BME280;70632;52.232;21.038;2024-01-30T06:23:10;101929.13;;;-0.85;100.00
75747;BME280;70632;52.232;21.038;2024-01-30T06:25:35;101933.56;;;-0.85;100.00
75747;BME280;70632;52.232;21.038;2024-01-30T06:28:01;101934.44;;;-0.85;100.00
75747;BME280;70632;52.232;21.038;2024-01-30T06:30:27;101938.91;;;-0.85;100.00
75747;BME280;70632;52.232;21.038;2024-01-30T06:32:53;101934.53;;;-0.95;100.00
75747;BME280;70632;52.232;21.038;2024-01-30T06:35:18;101929.16;;;-0.88;100.00
75747;BME280;70632;52.232;21.038;2024-01-30T06:37:44;101936.25;;;-0.84;100.00
75747;BME280;70632;52.232;21.038;2024-01-30T06:40:11;101936.22;;;-0.82;100.00
75747;BME280;70632;52.232;21.038;2024-01-30T06:42:37;101934.44;;;-0.83;100.00
75747;BME280;70632;52.232;21.038;2024-01-30T06:45:02;101940.59;;;-0.73;100.00
75747;BME280;70632;52.232;21.038;2024-01-30T06:47:28;101939.66;;;-0.68;100.00
75747;BME280;70632;52.232;21.038;2024-01-30T06:49:56;101933.34;;;-0.57;100.00
75747;BME280;70632;52.232;21.038;2024-01-30T06:52:22;101941.31;;;-0.54;100.00
75747;BME280;70632;52.232;21.038;2024-01-30T06:54:47;101936.84;;;-0.49;100.00
75747;BME280;70632;52.232;21.038;2024-01-30T06:57:13;101934.06;;;-0.42;100.00
75747;BME280;70632;52.232;21.038;2024-01-30T06:59:40;101934.00;;;-0.34;100.00
75747;BME280;70632;52.232;21.038;2024-01-30T07:02:10;101938.38;;;-0.27;100.00
75747;BME280;70632;52.232;21.038;2024-01-30T07:04:36;101942.78;;;-0.23;100.00
75747;BME280;70632;52.232;21.038;2024-01-30T07:07:03;101942.72;;;-0.18;99.89
75747;BME280;70632;52.232;21.038;2024-01-30T07:09:30;101942.69;;;-0.15;100.00
75747;BME280;70632;52.232;21.038;2024-01-30T07:11:56;101939.06;;;-0.08;99.13
75747;BME280;70632;52.232;21.038;2024-01-30T07:14:24;101929.13;;;0.05;98.00
75747;BME280;70632;52.232;21.038;2024-01-30T07:16:50;101937.00;;;0.16;96.55
75747;BME280;70632;52.232;21.038;2024-01-30T07:19:16;101948.44;;;0.26;98.21
75747;BME280;70632;52.232;21.038;2024-01-30T07:21:42;101943.88;;;0.37;96.47
75747;BME280;70632;52.232;21.038;2024-01-30T07:24:08;101949.91;;;0.51;95.96
75747;BME280;70632;52.232;21.038;2024-01-30T07:26:34;101958.63;;;0.66;93.93
75747;BME280;70632;52.232;21.038;2024-01-30T07:29:01;101950.28;;;0.87;92.19
75747;BME280;70632;52.232;21.038;2024-01-30T07:31:27;101941.81;;;1.18;90.05
75747;BME280;70632;52.232;21.038;2024-01-30T07:33:52;101943.75;;;1.59;87.49
75747;BME280;70632;52.232;21.038;2024-01-30T07:36:20;101939.56;;;1.94;84.22
75747;BME280;70632;52.232;21.038;2024-01-30T07:38:46;101940.50;;;2.35;81.23
75747;BME280;70632;52.232;21.038;2024-01-30T07:41:11;101940.34;;;2.84;77.96
75747;BME280;70632;52.232;21.038;2024-01-30T07:43:38;101936.53;;;3.31;76.49
75747;BME280;70632;52.232;21.038;2024-01-30T07:46:04;101942.50;;;3.77;73.44
75747;BME280;70632;52.232;21.038;2024-01-30T07:48:33;101931.69;;;4.13;70.37
75747;BME280;70632;52.232;21.038;2024-01-30T07:50:59;101941.69;;;4.67;68.19
75747;BME280;70632;52.232;21.038;2024-01-30T07:53:25;101938.88;;;5.00;66.08
75747;BME280;70632;52.232;21.038;2024-01-30T07:55:52;101938.22;;;4.93;65.61
75747;BME280;70632;52.232;21.038;2024-01-30T07:58:17;101937.00;;;5.30;63.75
75747;BME280;70632;52.232;21.038;2024-01-30T08:00:44;101925.22;;;5.86;61.97
75747;BME280;70632;52.232;21.038;2024-01-30T08:03:10;101926.69;;;6.21;58.80
75747;BME280;70632;52.232;21.038;2024-01-30T08:05:36;101926.56;;;6.24;58.93
75747;BME280;70632;52.232;21.038;2024-01-30T08:08:02;101927.56;;;6.22;58.06
75747;BME280;70632;52.232;21.038;2024-01-30T08:10:28;101923.50;;;6.57;57.65
75747;BME280;70632;52.232;21.038;2024-01-30T08:12:53;101928.13;;;6.77;56.20
75747;BME280;70632;52.232;21.038;2024-01-30T08:15:19;101923.88;;;6.94;55.06
75747;BME280;70632;52.232;21.038;2024-01-30T08:17:45;101924.19;;;7.30;53.63
75747;BME280;70632;52.232;21.038;2024-01-30T08:20:12;101915.16;;;7.31;53.68
75747;BME280;70632;52.232;21.038;2024-01-30T08:22:39;101909.69;;;7.75;52.75
75747;BME280;70632;52.232;21.038;2024-01-30T08:25:06;101909.13;;;8.08;50.90
75747;BME280;70632;52.232;21.038;2024-01-30T08:27:32;101913.78;;;8.04;50.66
75747;BME280;70632;52.232;21.038;2024-01-30T08:29:58;101910.91;;;8.07;50.24
75747;BME280;70632;52.232;21.038;2024-01-30T08:32:24;101907.69;;;7.99;51.00
75747;BME280;70632;52.232;21.038;2024-01-30T08:34:50;101902.34;;;8.58;49.18
75747;BME280;70632;52.232;21.038;2024-01-30T08:37:15;101903.53;;;9.07;47.76
75747;BME280;70632;52.232;21.038;2024-01-30T08:39:43;101901.69;;;9.08;47.84
75747;BME280;70632;52.232;21.038;2024-01-30T08:42:09;101905.97;;;9.31;46.88
75747;BME280;70632;52.232;21.038;2024-01-30T08:44:36;101908.56;;;9.33;46.89
75747;BME280;70632;52.232;21.038;2024-01-30T08:47:01;101908.28;;;9.56;45.41
75747;BME280;70632;52.232;21.038;2024-01-30T08:49:28;101903.44;;;9.80;44.89
75747;BME280;70632;52.232;21.038;2024-01-30T08:51:54;101914.81;;;9.52;45.61
75747;BME280;70632;52.232;21.038;2024-01-30T08:54:20;101906.63;;;9.89;45.46
75747;BME280;70632;52.232;21.038;2024-01-30T08:56:45;101902.59;;;10.13;43.98
75747;BME280;70632;52.232;21.038;2024-01-30T08:59:11;101903.41;;;10.15;43.50
75747;BME280;70632;52.232;21.038;2024-01-30T09:01:37;101903.16;;;10.69;42.41
75747;BME280;70632;52.232;21.038;2024-01-30T09:04:03;101909.09;;;10.26;43.44
75747;BME280;70632;52.232;21.038;2024-01-30T09:06:29;101900.16;;;10.42;43.71
75747;BME280;70632;52.232;21.038;2024-01-30T09:08:55;101905.00;;;10.69;42.57
75747;BME280;70632;52.232;21.038;2024-01-30T09:11:22;101910.34;;;10.86;42.07
75747;BME280;70632;52.232;21.038;2024-01-30T09:13:48;101909.66;;;10.66;41.76
75747;BME280;70632;52.232;21.038;2024-01-30T09:16:14;101909.38;;;10.71;41.70
75747;BME280;70632;52.232;21.038;2024-01-30T09:18:41;101910.47;;;10.51;41.40
75747;BME280;70632;52.232;21.038;2024-01-30T09:21:07;101899.31;;;10.89;41.13
75747;BME280;70632;52.232;21.038;2024-01-30T09:23:33;101901.75;;;10.78;41.83
75747;BME280;70632;52.232;21.038;2024-01-30T09:25:59;101902.00;;;10.57;42.32
75747;BME280;70632;52.232;21.038;2024-01-30T09:28:25;101900.91;;;10.93;42.00
75747;BME280;70632;52.232;21.038;2024-01-30T09:30:50;101903.34;;;10.82;41.33
75747;BME280;70632;52.232;21.038;2024-01-30T09:33:16;101898.25;;;11.07;40.99
75747;BME280;70632;52.232;21.038;2024-01-30T09:35:42;101893.59;;;11.56;40.53
75747;BME280;70632;52.232;21.038;2024-01-30T09:38:08;101887.53;;;11.36;40.47
75747;BME280;70632;52.232;21.038;2024-01-30T09:40:33;101882.81;;;11.24;40.67
75747;BME280;70632;52.232;21.038;2024-01-30T09:42:59;101895.00;;;11.63;39.61
75747;BME280;70632;52.232;21.038;2024-01-30T09:45:28;101881.81;;;11.71;39.15
75747;BME280;70632;52.232;21.038;2024-01-30T09:47:55;101891.44;;;11.46;39.03
75747;BME280;70632;52.232;21.038;2024-01-30T09:50:22;101883.72;;;10.93;40.71
75747;BME280;70632;52.232;21.038;2024-01-30T09:52:48;101888.69;;;10.37;42.05
75747;BME280;70632;52.232;21.038;2024-01-30T09:55:15;101890.31;;;10.23;43.68
75747;BME280;70632;52.232;21.038;2024-01-30T09:57:41;101886.75;;;9.88;44.03
75747;BME280;70632;52.232;21.038;2024-01-30T10:00:07;101884.69;;;9.41;44.64
75747;BME280;70632;52.232;21.038;2024-01-30T10:02:35;101895.84;;;9.17;46.19
75747;BME280;70632;52.232;21.038;2024-01-30T10:05:01;101879.91;;;9.11;46.00
75747;BME280;70632;52.232;21.038;2024-01-30T10:07:27;101881.50;;;8.79;47.29
75747;BME280;70632;52.232;21.038;2024-01-30T10:09:53;101885.75;;;8.65;47.79
75747;BME280;70632;52.232;21.038;2024-01-30T10:12:22;101887.22;;;8.54;47.79
75747;BME280;70632;52.232;21.038;2024-01-30T10:14:48;101892.31;;;8.41;47.96
75747;BME280;70632;52.232;21.038;2024-01-30T10:17:14;101888.47;;;8.26;48.53
75747;BME280;70632;52.232;21.038;2024-01-30T10:19:41;101882.81;;;8.12;48.83
75747;BME280;70632;52.232;21.038;2024-01-30T10:22:07;101881.59;;;8.19;49.13
75747;BME280;70632;52.232;21.038;2024-01-30T10:24:34;101879.25;;;8.11;48.65
75747;BME280;70632;52.232;21.038;2024-01-30T10:27:00;101868.38;;;8.13;49.32
75747;BME280;70632;52.232;21.038;2024-01-30T10:29:27;101875.72;;;8.09;49.09
75747;BME280;70632;52.232;21.038;2024-01-30T10:32:03;101863.94;;;7.91;50.27
75747;BME280;70632;52.232;21.038;2024-01-30T10:34:29;101859.81;;;8.03;49.89
75747;BME280;70632;52.232;21.038;2024-01-30T10:37:16;101862.00;;;8.14;49.27
75747;BME280;70632;52.232;21.038;2024-01-30T10:39:44;101853.50;;;8.23;49.50
75747;BME280;70632;52.232;21.038;2024-01-30T10:42:15;101849.41;;;8.14;49.20
75747;BME280;70632;52.232;21.038;2024-01-30T10:45:12;101843.66;;;8.01;49.65
75747;BME280;70632;52.232;21.038;2024-01-30T10:47:48;101837.69;;;7.95;49.85
75747;BME280;70632;52.232;21.038;2024-01-30T10:50:14;101842.56;;;8.05;49.41
75747;BME280;70632;52.232;21.038;2024-01-30T10:52:40;101837.00;;;8.10;49.29
75747;BME280;70632;52.232;21.038;2024-01-30T10:55:07;101825.72;;;8.19;49.13
75747;BME280;70632;52.232;21.038;2024-01-30T10:57:34;101831.81;;;8.24;48.67
75747;BME280;70632;52.232;21.038;2024-01-30T11:00:13;101839.13;;;8.22;48.68
75747;BME280;70632;52.232;21.038;2024-01-30T11:02:43;101826.53;;;8.21;49.22
75747;BME280;70632;52.232;21.038;2024-01-30T11:05:09;101830.03;;;8.23;48.72
75747;BME280;70632;52.232;21.038;2024-01-30T11:07:35;101822.09;;;8.20;48.72
75747;BME280;70632;52.232;21.038;2024-01-30T11:10:03;101817.34;;;8.25;48.24
75747;BME280;70632;52.232;21.038;2024-01-30T11:12:31;101813.47;;;8.31;48.34
75747;BME280;70632;52.232;21.038;2024-01-30T11:15:11;101823.94;;;8.39;47.67
75747;BME280;70632;52.232;21.038;2024-01-30T11:20:11;101817.44;;;8.62;48.10
75747;BME280;70632;52.232;21.038;2024-01-30T11:22:37;101803.88;;;8.81;47.14
75747;BME280;70632;52.232;21.038;2024-01-30T11:25:06;101796.06;;;8.75;46.82
75747;BME280;70632;52.232;21.038;2024-01-30T23:50:36;101535.16;;;3.65;66.80
75747;BME280;70632;52.232;21.038;2024-01-30T23:53:03;101539.56;;;3.67;65.91
75747;BME280;70632;52.232;21.038;2024-01-30T23:55:28;101537.75;;;3.68;66.75
75747;BME280;70632;52.232;21.038;2024-01-30T23:57:54;101537.91;;;3.63;66.71
